Time;durP1;ratioP1;P1;durP2;ratioP2;P2;SDS_P1;SDS_P2;PMS_P1;PMS_P2;Temp;Humidity;BMP_temperature;BMP_pressure;BME280_temperature;BME280_humidity;BME280_pressure;Samples;Min_cycle;Max_cycle;Signal;HPM_P1;HPM_P2
2021/01/31 00:01:00;;;;;;;26.03;14.37;;;-3.00;94.70;;;;;;5085840;28;20016;-77
2021/01/31 00:03:28;;;;;;;24.10;14.63;;;-2.90;94.70;;;;;;5095689;28;20482;-78
2021/01/31 00:05:58;;;;;;;21.63;11.60;;;-2.90;94.80;;;;;;5093779;28;20044;-77
2021/01/31 00:08:25;;;;;;;24.60;14.13;;;-2.90;94.60;;;;;;5095484;28;20043;-78
2021/01/31 00:10:52;;;;;;;21.75;14.30;;;-3.00;94.70;;;;;;5092877;28;20024;-77
2021/01/31 00:13:18;;;;;;;;;;;-3.00;94.70;;;;;;5094891;28;20025;-78
2021/01/31 00:15:47;;;;;;;25.45;13.52;;;-3.00;94.50;;;;;;5094342;28;19988;-77
2021/01/31 00:18:15;;;;;;;27.75;15.10;;;-3.00;94.40;;;;;;5093826;28;20097;-78
2021/01/31 00:20:45;;;;;;;23.65;14.55;;;-3.00;94.50;;;;;;5092737;28;20546;-77
2021/01/31 00:23:12;;;;;;;24.20;14.48;;;-3.00;94.60;;;;;;5094509;28;20044;-78
2021/01/31 00:25:38;;;;;;;25.73;16.17;;;-3.00;94.80;;;;;;5092825;28;20028;-77
2021/01/31 00:28:05;;;;;;;25.70;15.23;;;-3.00;94.80;;;;;;5094256;28;20447;-77
2021/01/31 00:30:36;;;;;;;23.58;15.57;;;-2.90;95.00;;;;;;5089833;28;20078;-76
2021/01/31 00:33:08;;;;;;;26.88;16.08;;;-2.90;95.00;;;;;;5098139;28;20107;-77
2021/01/31 00:35:37;;;;;;;25.60;17.70;;;-2.90;94.90;;;;;;5093058;28;20093;-77
2021/01/31 00:38:04;;;;;;;24.23;15.65;;;-2.80;94.90;;;;;;5089981;28;20043;-76
2021/01/31 00:40:29;;;;;;;24.50;16.10;;;-2.80;94.90;;;;;;5094079;28;20032;-77
2021/01/31 00:42:55;;;;;;;30.23;17.05;;;-2.70;94.80;;;;;;5092425;28;20020;-77
2021/01/31 00:45:24;;;;;;;20.98;15.07;;;-2.80;94.70;;;;;;5092681;28;20439;-77
2021/01/31 00:47:51;;;;;;;31.75;17.48;;;-2.70;94.80;;;;;;5093827;28;20095;-77
2021/01/31 00:50:20;;;;;;;21.90;15.05;;;-2.70;94.70;;;;;;5089707;28;20046;-78
2021/01/31 00:52:46;;;;;;;27.25;15.75;;;-2.70;94.80;;;;;;5093764;28;20361;-76
2021/01/31 00:55:13;;;;;;;26.73;16.15;;;-2.70;94.60;;;;;;5093898;28;20099;-78
2021/01/31 00:57:39;;;;;;;28.27;17.70;;;-2.80;94.60;;;;;;5093731;28;20052;-76
2021/01/31 01:00:27;;;;;;;26.38;15.90;;;-2.80;94.70;;;;;;5089657;28;20070;-76
2021/01/31 01:02:53;;;;;;;26.00;16.58;;;-2.60;94.70;;;;;;5089197;28;20024;-77
2021/01/31 01:05:22;;;;;;;27.63;17.30;;;-2.60;94.40;;;;;;5093354;28;20459;-77
2021/01/31 01:07:48;;;;;;;27.70;15.32;;;-2.50;94.30;;;;;;5093631;28;20052;-77
2021/01/31 01:10:18;;;;;;;28.02;17.70;;;-2.50;94.10;;;;;;5093351;28;20020;-76
2021/01/31 01:12:44;;;;;;;27.23;15.77;;;-2.60;94.10;;;;;;5093385;28;20024;-76
2021/01/31 01:15:12;;;;;;;29.08;17.15;;;-2.60;94.10;;;;;;5093241;28;20024;-77
2021/01/31 01:17:38;;;;;;;21.67;13.30;;;-2.60;94.10;;;;;;5091735;28;20056;-75
2021/01/31 01:20:06;;;;;;;27.92;17.38;;;-2.50;94.00;;;;;;5093113;28;20090;-78
2021/01/31 01:22:32;;;;;;;32.08;18.00;;;-2.60;94.10;;;;;;5093273;28;20073;-77
2021/01/31 01:25:02;;;;;;;29.52;17.45;;;-2.50;94.00;;;;;;5091705;28;20485;-75
2021/01/31 01:27:28;;;;;;;27.88;17.70;;;-2.50;93.90;;;;;;5092863;28;20016;-76
2021/01/31 01:29:54;;;;;;;31.17;18.33;;;-2.50;94.00;;;;;;5091696;28;20101;-77
2021/01/31 01:32:20;;;;;;;27.75;17.35;;;-2.50;93.80;;;;;;5100213;28;20081;-76
2021/01/31 01:34:46;;;;;;;29.10;16.73;;;-2.40;93.80;;;;;;5094193;28;20028;-76
2021/01/31 01:37:13;;;;;;;25.67;16.92;;;-2.40;93.70;;;;;;5093004;28;20101;-77
2021/01/31 01:39:39;;;;;;;26.23;15.77;;;-2.40;93.50;;;;;;5092772;28;20020;-76
2021/01/31 01:42:12;;;;;;;25.15;17.23;;;-2.30;93.40;;;;;;5092843;28;20024;-76
2021/01/31 01:44:39;;;;;;;27.95;19.13;;;-2.30;93.20;;;;;;5091228;28;20493;-76
2021/01/31 01:47:13;;;;;;;24.65;17.10;;;-2.30;93.10;;;;;;5092590;28;20035;-76
2021/01/31 01:49:42;;;;;;;31.05;19.73;;;-2.30;93.00;;;;;;5091059;28;20035;-76
2021/01/31 01:52:32;;;;;;;29.45;18.02;;;-2.20;92.80;;;;;;5091600;28;20022;-75
2021/01/31 01:55:10;;;;;;;30.17;17.90;;;-2.20;92.70;;;;;;5091196;28;20024;-77
2021/01/31 01:57:45;;;;;;;29.02;19.90;;;-2.20;92.60;;;;;;5081956;28;20020;-77
2021/01/31 02:00:12;;;;;;;33.13;20.40;;;-2.20;92.60;;;;;;5090625;28;20020;-79
2021/01/31 02:02:45;;;;;;;34.05;20.52;;;-2.20;92.50;;;;;;5092420;28;20024;-77
2021/01/31 02:05:15;;;;;;;33.90;19.23;;;-2.10;92.40;;;;;;5092491;28;20036;-76
2021/01/31 02:07:43;;;;;;;34.95;19.83;;;-2.10;92.30;;;;;;5092265;28;20103;-76
2021/01/31 02:10:09;;;;;;;;;;;-2.10;92.20;;;;;;5092819;28;20016;-77
2021/01/31 02:12:35;;;;;;;34.80;18.60;;;-2.00;92.20;;;;;;5090941;28;19904;-77
2021/01/31 02:15:03;;;;;;;32.65;19.00;;;-2.10;92.10;;;;;;5092728;28;20256;-77
2021/01/31 02:17:41;;;;;;;28.20;17.83;;;-2.10;91.90;;;;;;5092881;28;20024;-77
2021/01/31 02:20:13;;;;;;;29.73;17.75;;;-2.10;91.90;;;;;;5079103;28;20048;-76
2021/01/31 02:22:38;;;;;;;28.83;18.63;;;-2.10;91.80;;;;;;5091036;28;20028;-76
2021/01/31 02:25:29;;;;;;;25.83;16.58;;;-2.10;91.80;;;;;;5091924;28;20054;-76
2021/01/31 02:28:03;;;;;;;29.55;18.15;;;-2.10;91.70;;;;;;5092056;28;20029;-76
2021/01/31 02:30:38;;;;;;;26.80;16.77;;;-2.10;91.70;;;;;;5089928;28;20035;-77
2021/01/31 02:33:36;;;;;;;29.58;18.13;;;-2.00;91.60;;;;;;5103247;28;20038;-77
2021/01/31 02:36:30;;;;;;;24.60;16.02;;;-2.00;91.40;;;;;;5090847;28;20035;-77
2021/01/31 02:39:17;;;;;;;27.73;17.08;;;-2.00;91.40;;;;;;5079193;28;20373;-76
2021/01/31 02:41:52;;;;;;;29.73;18.95;;;-2.10;91.40;;;;;;5091947;28;20100;-77
2021/01/31 02:44:22;;;;;;;28.95;18.33;;;-2.00;91.40;;;;;;5090734;28;20081;-76
2021/01/31 02:47:03;;;;;;;29.73;16.30;;;-2.00;91.50;;;;;;5091881;28;20028;-77
2021/01/31 02:49:40;;;;;;;24.73;17.23;;;-2.10;91.60;;;;;;5092140;28;20019;-77
2021/01/31 02:52:06;;;;;;;26.70;17.60;;;-2.00;91.70;;;;;;5092120;28;20091;-77
2021/01/31 02:54:54;;;;;;;30.10;18.45;;;-2.00;91.80;;;;;;5092159;28;20116;-77
2021/01/31 02:57:32;;;;;;;27.92;18.33;;;-2.00;91.80;;;;;;5092511;28;20035;-76
2021/01/31 03:00:11;;;;;;;31.05;18.73;;;-2.00;91.80;;;;;;5095694;28;20012;-75
2021/01/31 03:03:12;;;;;;;27.45;18.23;;;-1.90;91.70;;;;;;5094497;28;20031;-75
2021/01/31 03:05:42;;;;;;;30.63;17.73;;;-1.90;91.60;;;;;;5095697;28;20042;-77
2021/01/31 03:08:27;;;;;;;30.30;17.95;;;-1.90;91.60;;;;;;5094420;28;20020;-76
2021/01/31 03:11:03;;;;;;;33.58;19.85;;;-1.90;91.60;;;;;;5095671;28;20022;-77
2021/01/31 03:13:37;;;;;;;30.58;18.30;;;-1.90;91.60;;;;;;5095718;28;20074;-76
2021/01/31 03:16:12;;;;;;;35.90;20.67;;;-1.90;91.50;;;;;;5095628;28;20074;-79
2021/01/31 03:19:11;;;;;;;32.33;19.38;;;-1.90;91.50;;;;;;5095774;28;20024;-77
2021/01/31 03:21:41;;;;;;;32.55;19.63;;;-1.90;91.60;;;;;;5081860;28;20044;-76
2021/01/31 03:24:19;;;;;;;31.15;19.08;;;-2.00;91.60;;;;;;5094043;28;20028;-76
2021/01/31 03:26:54;;;;;;;34.15;20.35;;;-1.90;91.70;;;;;;5095269;28;20164;-76
2021/01/31 03:29:20;;;;;;;31.80;19.42;;;-2.00;91.60;;;;;;5095270;28;20020;-76
2021/01/31 03:31:52;;;;;;;33.60;20.40;;;-1.90;91.70;;;;;;5097524;28;20081;-79
2021/01/31 03:34:23;;;;;;;34.40;20.33;;;-1.90;91.70;;;;;;5101251;28;20027;-77
2021/01/31 03:36:53;;;;;;;36.78;23.02;;;-1.90;91.70;;;;;;5095142;28;20361;-76
2021/01/31 03:39:20;;;;;;;38.53;23.25;;;-1.90;91.60;;;;;;5095037;28;20093;-77
2021/01/31 03:41:46;;;;;;;34.20;23.88;;;-1.90;91.50;;;;;;5094855;28;20013;-77
2021/01/31 03:44:12;;;;;;;32.33;20.08;;;-1.90;91.50;;;;;;5093464;28;20028;-76
2021/01/31 03:46:49;;;;;;;31.08;22.23;;;-1.90;91.30;;;;;;5094803;28;20103;-76
2021/01/31 03:49:18;;;;;;;35.50;21.38;;;-2.10;90.70;;;;;;5093645;28;20502;-77
2021/01/31 03:51:44;;;;;;;39.58;23.60;;;-2.30;90.80;;;;;;5094632;28;20229;-77
2021/01/31 03:54:10;;;;;;;39.05;22.05;;;-2.40;91.00;;;;;;5094956;28;20103;-80
2021/01/31 03:56:43;;;;;;;30.80;20.50;;;-2.40;91.20;;;;;;5095088;28;20027;-79
2021/01/31 03:59:10;;;;;;;40.08;23.48;;;-2.40;91.20;;;;;;5094835;28;20062;-76
2021/01/31 04:01:39;;;;;;;39.28;22.75;;;-2.50;91.40;;;;;;5094803;28;20016;-77
2021/01/31 04:04:18;;;;;;;41.58;23.52;;;-2.50;91.60;;;;;;5093276;28;20027;-77
2021/01/31 04:06:47;;;;;;;39.83;21.90;;;-2.50;91.70;;;;;;5094662;28;20054;-76
2021/01/31 04:09:15;;;;;;;31.67;20.10;;;-2.40;91.80;;;;;;5094209;28;20415;-77
2021/01/31 04:11:43;;;;;;;36.03;22.35;;;-2.40;91.90;;;;;;5094794;28;20381;-77
2021/01/31 04:14:17;;;;;;;37.80;20.10;;;-2.40;91.80;;;;;;5094326;28;20020;-77
2021/01/31 04:16:46;;;;;;;35.83;20.73;;;-2.40;91.80;;;;;;5093347;28;20024;-77
2021/01/31 04:19:13;;;;;;;33.35;20.88;;;-2.40;91.60;;;;;;5094163;28;20020;-76
2021/01/31 04:21:39;;;;;;;28.58;18.67;;;-2.40;91.50;;;;;;5094159;28;20126;-76
2021/01/31 04:24:06;;;;;;;33.90;20.88;;;-2.40;91.40;;;;;;5092861;28;20123;-77
2021/01/31 04:26:32;;;;;;;36.47;22.05;;;-2.40;91.40;;;;;;5089081;28;20055;-77
2021/01/31 04:28:58;;;;;;;33.42;20.33;;;-2.40;91.50;;;;;;5092870;28;20016;-76
2021/01/31 04:31:26;;;;;;;32.58;19.60;;;-2.30;91.50;;;;;;5093115;28;20050;-76
2021/01/31 04:33:52;;;;;;;33.75;21.00;;;-2.30;91.50;;;;;;5092453;28;20389;-76
2021/01/31 04:36:18;;;;;;;32.65;20.63;;;-2.20;91.50;;;;;;5094061;28;20381;-76
2021/01/31 04:38:44;;;;;;;33.47;22.65;;;-2.10;91.50;;;;;;5094065;28;20216;-76
2021/01/31 04:41:09;;;;;;;35.28;21.10;;;-2.10;91.40;;;;;;5093684;28;20055;-76
2021/01/31 04:43:36;;;;;;;39.60;22.60;;;-2.00;91.40;;;;;;5092433;28;20184;-78
2021/01/31 04:46:02;;;;;;;31.92;21.45;;;-2.00;91.30;;;;;;5093631;28;20095;-76
2021/01/31 04:48:35;;;;;;;35.83;22.40;;;-1.90;91.20;;;;;;5092248;28;20392;-76
2021/01/31 04:51:17;;;;;;;37.25;23.33;;;-1.90;91.20;;;;;;5093822;28;20107;-77
2021/01/31 04:54:05;;;;;;;38.72;21.77;;;-1.90;91.10;;;;;;5093333;28;20065;-77
2021/01/31 04:56:41;;;;;;;38.92;24.33;;;-1.90;91.10;;;;;;5104379;28;20063;-77
2021/01/31 04:59:17;;;;;;;35.47;23.25;;;-1.90;91.20;;;;;;5093670;28;20027;-77
2021/01/31 05:01:43;;;;;;;43.67;27.25;;;-1.90;91.10;;;;;;5092791;28;20024;-77
2021/01/31 05:04:12;;;;;;;37.35;24.70;;;-2.00;91.10;;;;;;5094484;28;20099;-76
2021/01/31 05:06:46;;;;;;;40.58;25.77;;;-2.00;91.20;;;;;;5093756;28;20381;-76
2021/01/31 05:09:23;;;;;;;37.42;23.70;;;-2.00;91.20;;;;;;5093300;28;20054;-76
2021/01/31 05:11:56;;;;;;;48.58;24.70;;;-2.00;90.90;;;;;;5093521;28;20377;-76
2021/01/31 05:14:51;;;;;;;35.25;22.88;;;-2.10;90.70;;;;;;5093966;28;20491;-77
2021/01/31 05:17:19;;;;;;;37.10;23.08;;;-2.10;90.70;;;;;;5093019;28;20050;-77
2021/01/31 05:19:45;;;;;;;;;;;-2.10;90.90;;;;;;5080189;28;20482;-76
2021/01/31 05:22:17;;;;;;;30.10;17.63;;;-2.10;90.90;;;;;;5091708;28;19958;-78
2021/01/31 05:24:46;;;;;;;34.80;22.33;;;-2.20;91.20;;;;;;5091596;28;20032;-76
2021/01/31 05:27:12;;;;;;;38.15;22.38;;;-2.20;91.10;;;;;;5093111;28;20020;-76
2021/01/31 05:29:40;;;;;;;33.90;22.02;;;-2.20;91.20;;;;;;5092795;28;20043;-78
2021/01/31 05:32:07;;;;;;;36.30;20.58;;;-2.20;91.00;;;;;;5097908;28;20047;-75
2021/01/31 05:34:40;;;;;;;;;;;-2.20;91.00;;;;;;5094791;28;20020;-77
2021/01/31 05:37:10;;;;;;;34.10;20.52;;;-2.10;91.10;;;;;;5092942;28;19911;-76
2021/01/31 05:39:41;;;;;;;32.90;18.80;;;-2.10;91.00;;;;;;5092563;28;20027;-76
2021/01/31 05:42:19;;;;;;;35.28;22.48;;;-2.10;91.00;;;;;;5092748;28;20020;-76
2021/01/31 05:44:56;;;;;;;31.70;20.70;;;-2.00;90.80;;;;;;5090869;28;20088;-76
2021/01/31 05:47:24;;;;;;;34.92;21.00;;;-2.00;90.70;;;;;;5069520;28;20082;-76
2021/01/31 05:49:53;;;;;;;36.50;20.33;;;-2.10;90.60;;;;;;5091224;28;20027;-76
2021/01/31 05:52:19;;;;;;;40.15;21.67;;;-2.10;90.70;;;;;;5089497;28;20085;-76
2021/01/31 05:54:46;;;;;;;36.38;22.02;;;-2.10;90.70;;;;;;5092315;28;20028;-76
2021/01/31 05:57:32;;;;;;;30.77;20.52;;;-2.10;90.60;;;;;;5089646;28;20123;-78
2021/01/31 06:00:25;;;;;;;40.47;21.58;;;-2.00;90.70;;;;;;5092423;28;20024;-76
2021/01/31 06:03:03;;;;;;;38.35;20.67;;;-1.90;90.70;;;;;;5079145;28;20024;-77
2021/01/31 06:05:32;;;;;;;35.78;21.20;;;-1.90;90.70;;;;;;5091080;28;20036;-75
2021/01/31 06:07:59;;;;;;;34.42;21.70;;;-1.90;90.30;;;;;;5092504;28;20028;-77
2021/01/31 06:10:26;;;;;;;36.80;22.35;;;-1.80;90.40;;;;;;5092436;28;20110;-76
2021/01/31 06:13:04;;;;;;;36.38;21.85;;;-1.80;90.40;;;;;;5092293;28;20028;-77
2021/01/31 06:15:38;;;;;;;37.58;22.77;;;-1.80;90.30;;;;;;5092539;28;20012;-77
2021/01/31 06:18:27;;;;;;;38.70;22.33;;;-1.80;90.30;;;;;;5092427;28;20073;-76
2021/01/31 06:20:53;;;;;;;39.50;21.70;;;-1.70;90.30;;;;;;5090701;28;20058;-79
2021/01/31 06:23:44;;;;;;;42.38;24.55;;;-1.70;90.40;;;;;;5090820;28;20112;-76
2021/01/31 06:26:38;;;;;;;40.33;26.08;;;-1.60;90.30;;;;;;5091881;28;20032;-76
2021/01/31 06:29:19;;;;;;;37.33;23.02;;;-1.60;90.10;;;;;;5090238;28;20112;-79
2021/01/31 06:32:06;;;;;;;37.17;21.90;;;-1.60;90.10;;;;;;5087085;28;20499;-77
2021/01/31 06:34:31;;;;;;;39.10;24.92;;;-1.60;89.80;;;;;;5099261;28;20039;-76
2021/01/31 06:37:22;;;;;;;36.38;22.50;;;-1.60;90.00;;;;;;5095944;28;20381;-77
2021/01/31 06:40:22;;;;;;;31.13;21.02;;;-1.60;89.40;;;;;;5107322;28;20058;-77
2021/01/31 06:43:15;;;;;;;27.92;18.63;;;-1.70;89.30;;;;;;5076135;28;20558;-78
2021/01/31 06:45:45;;;;;;;25.88;16.60;;;-1.60;90.00;;;;;;5085692;28;20032;-76
2021/01/31 06:48:22;;;;;;;18.20;11.93;;;-1.60;89.40;;;;;;5096024;28;20437;-77
2021/01/31 06:51:13;;;;;;;18.88;12.57;;;-1.60;88.80;;;;;;5102606;28;20095;-77
2021/01/31 06:53:51;;;;;;;22.58;12.63;;;-1.60;88.40;;;;;;5091197;28;20031;-78
2021/01/31 06:56:43;;;;;;;19.83;14.43;;;-1.60;87.90;;;;;;5088423;28;20024;-78
2021/01/31 06:59:30;;;;;;;25.50;15.65;;;-1.50;87.60;;;;;;5102389;28;20044;-77
2021/01/31 07:02:14;;;;;;;;;;;-1.50;86.90;;;;;;5096394;28;20021;-79
2021/01/31 07:05:01;;;;;;;24.52;14.82;;;-1.50;86.60;;;;;;5085062;28;20367;-81
2021/01/31 07:07:38;;;;;;;26.77;17.23;;;-1.60;86.70;;;;;;5096061;28;20023;-81
2021/01/31 07:10:33;;;;;;;32.53;17.75;;;-1.50;87.50;;;;;;5095329;28;20081;-81
2021/01/31 07:13:07;;;;;;;30.42;17.77;;;-1.50;87.40;;;;;;5095827;28;20020;-79
2021/01/31 07:15:50;;;;;;;26.05;15.35;;;-1.50;87.70;;;;;;5094001;28;20362;-79
2021/01/31 07:18:20;;;;;;;24.30;15.00;;;-1.50;87.60;;;;;;5089404;28;20799;-81
2021/01/31 07:20:52;;;;;;;25.67;16.38;;;-1.50;87.70;;;;;;5094945;28;20051;-81
2021/01/31 07:23:28;;;;;;;25.02;13.82;;;-1.50;87.50;;;;;;5114590;27;20397;-82
2021/01/31 07:26:18;;;;;;;20.30;12.48;;;-1.40;87.50;;;;;;5093686;28;20067;-80
2021/01/31 07:28:44;;;;;;;18.40;11.48;;;-1.40;87.30;;;;;;5094892;28;20040;-81
2021/01/31 07:31:43;;;;;;;19.65;12.82;;;-1.30;86.60;;;;;;5095106;28;20008;-83
2021/01/31 07:34:26;;;;;;;20.85;14.77;;;-1.30;86.90;;;;;;5092913;28;20100;-81
2021/01/31 07:37:14;;;;;;;25.55;15.77;;;-1.20;87.10;;;;;;5099078;28;20020;-80
2021/01/31 07:40:01;;;;;;;30.58;16.95;;;-1.10;86.80;;;;;;5095387;28;20075;-82
2021/01/31 07:42:30;;;;;;;27.98;16.15;;;-1.10;87.00;;;;;;5092921;28;20108;-81
2021/01/31 07:45:13;;;;;;;20.20;14.02;;;-1.10;87.10;;;;;;5092955;28;20400;-84
2021/01/31 07:47:40;;;;;;;18.85;13.20;;;-1.10;86.40;;;;;;5094293;28;20445;-82
2021/01/31 07:50:06;;;;;;;22.25;13.82;;;-1.10;86.00;;;;;;5096716;28;20016;-78
2021/01/31 07:52:53;;;;;;;30.85;17.40;;;-1.10;85.40;;;;;;5099691;28;20043;-79
2021/01/31 07:55:32;;;;;;;27.48;17.15;;;-1.10;85.30;;;;;;5104625;28;20098;-80
2021/01/31 07:58:22;;;;;;;31.27;18.35;;;-1.20;85.00;;;;;;5114567;28;20030;-86
2021/01/31 08:00:50;;;;;;;29.95;17.63;;;-1.20;85.80;;;;;;5091562;28;20022;-86
2021/01/31 08:03:28;;;;;;;37.00;18.80;;;-1.10;85.70;;;;;;5096847;28;20024;-85
2021/01/31 08:06:00;;;;;;;37.92;21.08;;;-1.10;86.00;;;;;;5098268;28;20481;-84
2021/01/31 08:08:48;;;;;;;32.63;18.67;;;-1.10;86.30;;;;;;5098806;28;20091;-80
2021/01/31 08:11:17;;;;;;;38.22;20.55;;;-1.10;86.30;;;;;;5102750;28;20114;-85
2021/01/31 08:13:47;;;;;;;34.15;20.70;;;-1.00;86.80;;;;;;5083068;28;20031;-87
2021/01/31 08:16:39;;;;;;;30.02;18.42;;;-1.00;87.10;;;;;;5102409;28;20024;-86
2021/01/31 08:19:08;;;;;;;28.67;17.42;;;-0.90;86.80;;;;;;5095929;28;20024;-86
2021/01/31 08:21:51;;;;;;;33.17;19.83;;;-0.90;86.70;;;;;;5101062;28;20097;-88
2021/01/31 08:24:54;;;;;;;31.17;19.15;;;-0.90;85.30;;;;;;5098697;28;20024;-82
2021/01/31 08:27:43;;;;;;;33.85;19.38;;;-0.90;84.60;;;;;;5099695;28;20034;-89
2021/01/31 08:30:42;;;;;;;33.35;19.52;;;-0.90;85.30;;;;;;5080601;28;20027;-87
2021/01/31 08:33:14;;;;;;;32.53;20.45;;;-0.90;85.60;;;;;;5090864;28;20477;-86
2021/01/31 08:35:42;;;;;;;33.42;21.38;;;-0.90;86.40;;;;;;5096436;28;20024;-87
2021/01/31 08:38:14;;;;;;;30.67;19.60;;;-0.90;86.00;;;;;;5097208;28;20024;-87
2021/01/31 08:40:41;;;;;;;31.65;19.40;;;-0.80;86.00;;;;;;5096867;28;20020;-86
2021/01/31 08:43:10;;;;;;;36.53;22.67;;;-0.80;86.10;;;;;;5091049;28;20028;-85
2021/01/31 08:45:45;;;;;;;31.80;21.40;;;-0.80;85.50;;;;;;5096385;28;20039;-88
2021/01/31 08:48:25;;;;;;;42.15;21.65;;;-0.80;85.30;;;;;;5094976;28;20020;-81
2021/01/31 08:51:13;;;;;;;29.38;19.70;;;-0.80;85.50;;;;;;5095868;28;20069;-81
2021/01/31 08:53:40;;;;;;;35.88;20.33;;;-0.80;85.80;;;;;;5094867;28;20030;-79
2021/01/31 08:56:22;;;;;;;28.70;18.83;;;-0.70;86.10;;;;;;5087806;28;20048;-81
2021/01/31 08:58:48;;;;;;;31.02;20.45;;;-0.70;85.30;;;;;;5099536;28;20031;-83
2021/01/31 09:01:14;;;;;;;31.98;20.08;;;-0.70;85.30;;;;;;5094994;28;20036;-82
2021/01/31 09:03:42;;;;;;;34.95;19.73;;;-0.80;84.60;;;;;;5094824;28;20024;-80
2021/01/31 09:06:09;;;;;;;31.55;19.00;;;-0.80;84.30;;;;;;5105951;28;20050;-79
2021/01/31 09:08:36;;;;;;;32.73;22.20;;;-0.90;84.30;;;;;;5094415;28;20016;-82
2021/01/31 09:11:11;;;;;;;33.05;21.05;;;-0.90;84.60;;;;;;5091741;28;20367;-81
2021/01/31 09:13:40;;;;;;;38.85;20.85;;;-0.90;84.40;;;;;;5083626;28;20058;-83
2021/01/31 09:16:22;;;;;;;31.73;19.50;;;-0.90;84.80;;;;;;5095005;28;20025;-82
2021/01/31 09:19:06;;;;;;;33.50;21.63;;;-0.80;84.10;;;;;;5086155;28;20024;-80
2021/01/31 09:21:34;;;;;;;34.13;20.25;;;-0.80;83.70;;;;;;5093657;28;20051;-85
2021/01/31 09:24:07;;;;;;;33.90;19.33;;;-0.90;83.30;;;;;;5093372;28;20477;-80
2021/01/31 09:26:33;;;;;;;32.13;19.15;;;-0.90;84.50;;;;;;5089719;28;20093;-80
2021/01/31 09:29:00;;;;;;;28.15;18.13;;;-1.00;83.70;;;;;;5093011;28;20020;-81
2021/01/31 09:31:30;;;;;;;22.05;14.48;;;-1.00;85.00;;;;;;5097660;28;20028;-82
2021/01/31 09:34:01;;;;;;;28.35;16.45;;;-1.00;85.70;;;;;;5085353;28;20496;-82
2021/01/31 09:36:31;;;;;;;25.13;16.23;;;-1.10;82.70;;;;;;5093922;28;20075;-81
2021/01/31 09:38:59;;;;;;;30.40;18.23;;;-1.10;83.90;;;;;;5093836;28;20020;-81
2021/01/31 09:41:27;;;;;;;31.92;19.20;;;-1.10;84.30;;;;;;5092997;28;20031;-80
2021/01/31 09:44:00;;;;;;;27.60;16.15;;;-1.10;84.80;;;;;;5092937;28;20016;-81
2021/01/31 09:46:27;;;;;;;24.95;14.50;;;-1.00;84.40;;;;;;5080800;28;20039;-80
2021/01/31 09:49:09;;;;;;;25.77;15.60;;;-1.10;84.10;;;;;;5092837;28;20020;-81
2021/01/31 09:51:36;;;;;;;23.13;13.73;;;-1.10;83.20;;;;;;5092810;28;20031;-80
2021/01/31 09:54:16;;;;;;;22.20;13.35;;;-1.10;84.40;;;;;;5093797;28;20012;-80
2021/01/31 09:56:54;;;;;;;24.25;14.65;;;-1.10;84.40;;;;;;5081345;28;20017;-80
2021/01/31 09:59:25;;;;;;;23.27;13.50;;;-1.10;84.70;;;;;;5094794;28;20028;-79
2021/01/31 10:02:00;;;;;;;25.70;17.33;;;-1.00;84.90;;;;;;5091391;28;20027;-80
2021/01/31 10:04:26;;;;;;;27.05;18.77;;;-1.00;84.30;;;;;;5091406;28;20085;-80
2021/01/31 10:07:09;;;;;;;29.52;17.63;;;-1.00;84.30;;;;;;5092280;28;20428;-81
2021/01/31 10:10:19;;;;;;;28.48;19.33;;;-1.00;84.60;;;;;;5078920;28;20056;-80
2021/01/31 10:12:45;;;;;;;24.83;17.00;;;-1.00;85.40;;;;;;5092036;28;20024;-80
2021/01/31 10:15:11;;;;;;;30.48;17.92;;;-0.80;86.10;;;;;;5092539;28;20488;-81
2021/01/31 10:17:48;;;;;;;23.70;15.60;;;-0.80;86.30;;;;;;5092613;28;20065;-80
2021/01/31 10:20:28;;;;;;;28.90;14.30;;;-0.90;86.60;;;;;;5093741;28;20056;-79
2021/01/31 10:23:13;;;;;;;19.90;12.38;;;-0.90;86.50;;;;;;5091551;28;20024;-80
2021/01/31 10:25:41;;;;;;;20.52;12.40;;;-1.00;86.40;;;;;;5092672;28;20032;-81
2021/01/31 10:28:10;;;;;;;16.60;11.88;;;-1.00;85.80;;;;;;5092414;28;20021;-81
2021/01/31 10:30:41;;;;;;;21.50;12.00;;;-1.00;85.60;;;;;;5092575;28;20077;-79
2021/01/31 10:33:36;;;;;;;24.05;11.63;;;-1.00;86.10;;;;;;5100336;28;20016;-81
2021/01/31 10:36:26;;;;;;;19.00;10.90;;;-1.00;85.50;;;;;;5091102;28;20027;-81
2021/01/31 10:38:59;;;;;;;17.95;10.40;;;-1.10;85.70;;;;;;5092361;28;20020;-81
2021/01/31 10:41:25;;;;;;;14.98;8.00;;;-1.10;86.20;;;;;;5090895;28;20066;-81
2021/01/31 10:44:09;;;;;;;18.35;9.95;;;-1.10;86.20;;;;;;5092613;28;20381;-82
2021/01/31 10:46:37;;;;;;;18.25;10.05;;;-1.10;86.70;;;;;;5093064;28;20135;-81
2021/01/31 10:49:04;;;;;;;15.48;10.00;;;-1.20;87.00;;;;;;5093728;28;20393;-83
2021/01/31 10:52:40;;;;;;;25.05;14.15;;;-1.10;85.70;;;;;;5092829;28;20024;-82
2021/01/31 10:55:14;;;;;;;14.75;8.90;;;-1.10;86.40;;;;;;5014159;28;20030;-84
2021/01/31 10:57:44;;;;;;;19.38;11.50;;;-1.20;87.10;;;;;;5019611;28;20026;-80
2021/01/31 11:00:19;;;;;;;16.40;10.35;;;-1.30;86.50;;;;;;5068539;28;20031;-83
2021/01/31 11:02:45;;;;;;;14.07;9.65;;;-1.30;86.70;;;;;;5081659;28;20046;-81
2021/01/31 11:05:11;;;;;;;14.45;10.48;;;-1.30;86.90;;;;;;5099653;28;20473;-81
2021/01/31 11:07:37;;;;;;;14.95;9.77;;;-1.30;87.00;;;;;;5094207;28;20102;-80
2021/01/31 11:10:05;;;;;;;12.65;10.27;;;-1.30;87.60;;;;;;5093891;28;20097;-82
2021/01/31 11:12:30;;;;;;;;;;;-1.30;87.80;;;;;;5095167;28;20047;-81
2021/01/31 11:14:56;;;;;;;18.42;8.57;;;-1.40;87.80;;;;;;5095770;28;20300;-81
2021/01/31 11:17:24;;;;;;;14.30;8.20;;;-1.50;88.20;;;;;;5110264;28;20017;-81
2021/01/31 11:19:50;;;;;;;19.38;11.77;;;-1.50;88.20;;;;;;5097262;28;20562;-82
2021/01/31 11:22:17;;;;;;;14.45;10.32;;;-1.40;88.30;;;;;;5095435;28;20493;-81
2021/01/31 11:24:45;;;;;;;15.98;10.25;;;-1.40;88.20;;;;;;5099020;28;20107;-82
2021/01/31 11:27:11;;;;;;;18.30;9.80;;;-1.40;87.90;;;;;;5087637;28;20426;-82
2021/01/31 11:29:37;;;;;;;8.35;5.82;;;-1.30;87.70;;;;;;5092653;28;20012;-80
2021/01/31 11:32:03;;;;;;;18.33;10.15;;;-1.30;88.20;;;;;;5100095;28;20071;-82
2021/01/31 11:34:29;;;;;;;16.90;9.60;;;-1.30;88.80;;;;;;5099845;28;20067;-81
2021/01/31 11:36:55;;;;;;;14.43;9.60;;;-1.40;89.30;;;;;;5092746;28;20052;-84
2021/01/31 11:39:20;;;;;;;16.80;9.98;;;-1.40;89.60;;;;;;5091607;28;20016;-81
2021/01/31 11:41:46;;;;;;;18.80;9.75;;;-1.40;89.60;;;;;;5094847;28;20086;-80
2021/01/31 11:44:35;;;;;;;17.60;11.43;;;-1.30;90.00;;;;;;5084736;28;20099;-83
2021/01/31 11:47:01;;;;;;;15.55;10.38;;;-1.30;90.10;;;;;;5081263;28;20036;-81
2021/01/31 11:49:28;;;;;;;22.80;9.05;;;-1.30;90.20;;;;;;5095003;28;20023;-82
2021/01/31 11:51:53;;;;;;;17.52;10.18;;;-1.30;90.20;;;;;;5097755;28;20107;-80
2021/01/31 11:54:19;;;;;;;23.13;11.93;;;-1.20;89.90;;;;;;5091078;28;20056;-81
2021/01/31 11:56:45;;;;;;;21.15;12.25;;;-1.20;89.40;;;;;;5093059;28;20119;-87
2021/01/31 11:59:11;;;;;;;23.52;12.27;;;-1.10;89.00;;;;;;5104001;28;20020;-84
2021/01/31 12:01:38;;;;;;;21.90;11.88;;;-1.00;88.60;;;;;;5096812;28;20024;-85
2021/01/31 12:04:05;;;;;;;20.35;12.70;;;-0.90;88.40;;;;;;5096369;28;20026;-88
2021/01/31 12:06:30;;;;;;;14.02;9.10;;;-0.90;87.90;;;;;;5095546;28;20043;-86
2021/01/31 12:08:56;;;;;;;15.32;10.13;;;-0.90;88.00;;;;;;5096192;28;20483;-80
2021/01/31 12:11:22;;;;;;;20.65;12.60;;;-1.00;88.30;;;;;;5093750;28;20027;-80
2021/01/31 12:13:48;;;;;;;17.42;11.65;;;-1.00;88.60;;;;;;5094564;28;20091;-83
2021/01/31 12:16:14;;;;;;;17.20;11.60;;;-1.10;88.70;;;;;;5094656;28;20078;-83
2021/01/31 12:18:40;;;;;;;20.48;11.65;;;-1.10;88.90;;;;;;5093996;28;20028;-82
2021/01/31 12:21:06;;;;;;;18.50;12.63;;;-1.10;89.20;;;;;;5092807;28;20435;-82
2021/01/31 12:23:32;;;;;;;18.00;10.98;;;-1.10;89.40;;;;;;5094337;28;20020;-82
2021/01/31 12:25:58;;;;;;;23.05;12.55;;;-1.10;89.30;;;;;;5089859;28;20054;-81
2021/01/31 12:28:24;;;;;;;17.77;12.38;;;-1.10;89.20;;;;;;5093359;28;20062;-80
2021/01/31 12:30:50;;;;;;;14.57;10.13;;;-1.10;89.60;;;;;;5094261;28;20020;-80
2021/01/31 12:33:16;;;;;;;18.45;11.45;;;-1.10;89.30;;;;;;5098422;28;20020;-80
2021/01/31 12:35:42;;;;;;;16.33;10.45;;;-1.10;89.10;;;;;;5094638;28;20032;-80
2021/01/31 12:38:07;;;;;;;19.13;11.45;;;-1.10;88.70;;;;;;5093357;28;20020;-83
2021/01/31 12:40:33;;;;;;;17.92;10.80;;;-1.10;88.50;;;;;;5094546;28;20069;-81
2021/01/31 12:43:00;;;;;;;19.40;12.20;;;-1.10;88.20;;;;;;5094364;28;20026;-82
2021/01/31 12:45:26;;;;;;;16.70;11.43;;;-1.00;88.30;;;;;;5094418;28;20032;-81
2021/01/31 12:47:53;;;;;;;19.67;11.65;;;-1.00;88.10;;;;;;5095372;28;20024;-81
2021/01/31 12:50:28;;;;;;;17.73;12.75;;;-1.10;88.20;;;;;;5095649;28;20112;-80
2021/01/31 12:52:54;;;;;;;23.70;12.57;;;-1.00;88.10;;;;;;5091807;28;20113;-80
2021/01/31 12:55:20;;;;;;;22.33;12.82;;;-1.00;88.30;;;;;;5092667;28;20460;-79
2021/01/31 12:57:46;;;;;;;16.15;10.57;;;-1.00;88.70;;;;;;5091479;28;20030;-81